Winona, KS

7:13 PM CDT on April 18, 2015 (GMT -0500)
Kit Carson County | | Change Station
CLOSE
Current Station
Airport
Location: Burlington,
Elevation: 4216 ft
Nearby Weather Stations
Active Advisory: Tornado Watch

Elev 4216 ft 39.24 °N, 102.28 °W | Updated 20 minutes ago

Partly Cloudy
Partly Cloudy
50 °F
Feels Like 50 °F
N
18
Wind Variable Wind from NW

Today
High -- | Low -- °F
--% Chance of Precip.
Yesterday
High -- | Low -- °F
Precip. -- in
7:03 AM 8:24 PM
New Moon, 0% visible
Pressure 29.77 in
Visibility 10.0 miles
Clouds Mostly Cloudy 8000 ft
Dew Point 40 °F
Humidity 68%
Rainfall 0.01 in
Snow Depth Not available.
UV 1 out of 12
Pollen 9.80 out of 12
Air Quality Not available.
Flu Activity Sporadic
METAR KITR 182353Z AUTO 32016KT 10SM BKN080 10/04 A2981 RMK AO2 SLP080 60001 T01000044 10144 20100 54000

More Conditions Fewer Conditions

Pressure 29.77 in
Visibility 10.0 miles
Clouds Mostly Cloudy 8000 ft
Dew Point 40 °F
Humidity 68%
Rainfall 0.01 in
Snow Depth Not available.
UV 1 out of 12
Pollen 9.80 out of 12
Air Quality Not available.
Flu Activity Sporadic
METAR KITR 182353Z AUTO 32016KT 10SM BKN080 10/04 A2981 RMK AO2 SLP080 60001 T01000044 10144 20100 54000

More Conditions Fewer Conditions

10-Day Weather Forecast

Almanac

Astronomy

Apr. 18, 2015 Rise Set
Actual Time
Civil Twilight
Nautical Twilight
Astronomical Twilight
Moon
Length of Visible Light
Length of Day
Tomorrow will be .
, % of the Moon is Illuminated

Today's Extremes

State Highs State Lows

Community

WunderPhotos

Upload Photos

1,814,592 photos uploaded!

WunderBlogs® & News

Nearby

Air Quality

  Air Quality AQ Index Pollutant
Not available.

Snow Depth

Station Depth Elevation

Earthquake Activity

City Distance Mag. Time & Date
Minimum magnitude displayed is 2.5.

Coastal Water Temperatures

Place Temperature

Stations

Nearby Weather Stations

Station Location Temp. Windchill Dew Point Humidity Wind Precip. Elev Updated Type
                   
Tornado Watch
Statement as of 6:12 PM MDT on April 18, 2015


The National Weather Service has cancelled Tornado Watch 75 for
the following areas

In Colorado this cancels 2 counties

In east central Colorado

Cheyenne Kit Carson

In Kansas this cancels 7 counties

In northwest Kansas

Gove Greeley Logan
Sherman Thomas Wallace
Wichita

This includes the cities of... Burlington... Cheyenne Wells...
Colby... Goodland... Kit Carson... Leoti... Oakley... Quinter...
Sharon Springs and Tribune.